createdAt,value
2018-01-18T00:02:18.486Z,3.97
2018-01-18T00:04:45.981Z,2.93
2018-01-18T00:07:13.521Z,4.20
2018-01-18T00:09:44.341Z,2.80
2018-01-18T00:12:11.899Z,4.20
2018-01-18T00:14:39.458Z,4.30
2018-01-18T00:17:07.017Z,4.27
2018-01-18T00:19:34.524Z,4.10
2018-01-18T00:22:02.034Z,4.33
2018-01-18T00:24:29.593Z,3.70
2018-01-18T00:26:57.153Z,4.10
2018-01-18T00:29:24.712Z,3.90
2018-01-18T00:31:52.273Z,4.13
2018-01-18T00:34:19.684Z,4.17
2018-01-18T00:36:47.596Z,3.83
2018-01-18T00:39:15.156Z,4.40
2018-01-18T00:41:42.717Z,4.07
2018-01-18T00:44:10.156Z,4.00
2018-01-18T00:46:37.730Z,4.30
2018-01-18T00:49:05.325Z,4.03
2018-01-18T00:51:32.955Z,4.20
2018-01-18T00:54:00.412Z,4.30
2018-01-18T00:56:27.804Z,4.10
2018-01-18T00:58:55.322Z,4.33
2018-01-18T01:01:22.901Z,4.30
2018-01-18T01:03:50.443Z,4.03
2018-01-18T01:06:18.001Z,4.13
2018-01-18T01:08:45.437Z,4.77
2018-01-18T01:11:13.222Z,3.77
2018-01-18T01:13:40.717Z,4.00
2018-01-18T01:16:08.241Z,3.97
2018-01-18T01:18:35.686Z,5.07
2018-01-18T01:21:03.461Z,4.20
2018-01-18T01:23:30.917Z,4.10
2018-01-18T01:25:58.497Z,4.47
2018-01-18T01:28:25.947Z,4.70
2018-01-18T01:30:53.493Z,3.50
2018-01-18T01:33:21.061Z,5.27
2018-01-18T01:35:48.611Z,4.07
2018-01-18T01:38:16.014Z,4.00
2018-01-18T01:40:43.629Z,3.37
2018-01-18T01:43:11.121Z,4.37
2018-01-18T01:45:38.649Z,3.77
2018-01-18T01:48:06.205Z,3.40
2018-01-18T01:50:33.696Z,4.27
2018-01-18T01:53:01.220Z,4.37
2018-01-18T01:55:28.780Z,3.80
2018-01-18T01:57:56.341Z,3.50
2018-01-18T02:00:23.904Z,3.87
2018-01-18T02:02:51.391Z,3.17
2018-01-18T02:05:18.915Z,3.47
2018-01-18T02:07:46.407Z,3.77
2018-01-18T02:10:13.882Z,4.07
2018-01-18T02:12:41.464Z,3.57
2018-01-18T02:15:09.050Z,3.50
2018-01-18T02:17:36.516Z,4.70
2018-01-18T02:20:04.067Z,4.37
2018-01-18T02:22:31.562Z,3.87
2018-01-18T02:24:59.016Z,3.90
2018-01-18T02:27:26.995Z,4.23
2018-01-18T02:29:54.509Z,3.80
2018-01-18T02:32:22.069Z,4.20
2018-01-18T02:34:49.628Z,4.17
2018-01-18T02:37:17.064Z,4.30
2018-01-18T02:39:44.644Z,4.30
2018-01-18T02:42:12.203Z,4.50
2018-01-18T02:44:39.764Z,4.53
2018-01-18T02:47:07.258Z,4.17
2018-01-18T02:49:34.717Z,4.53
2018-01-18T02:52:02.236Z,5.30
2018-01-18T02:54:29.797Z,4.70
2018-01-18T02:56:57.288Z,5.73
2018-01-18T02:59:27.988Z,5.20
2018-01-18T03:01:55.445Z,5.10
2018-01-18T03:04:22.947Z,5.77
2018-01-18T03:06:50.563Z,5.57
2018-01-18T03:09:18.123Z,5.13
2018-01-18T03:11:45.681Z,5.20
2018-01-18T03:14:13.240Z,5.20
2018-01-18T03:16:40.800Z,5.90
2018-01-18T03:19:08.304Z,5.90
2018-01-18T03:21:35.817Z,5.27
2018-01-18T03:24:03.319Z,5.57
2018-01-18T03:26:30.836Z,6.27
2018-01-18T03:28:58.393Z,6.03
2018-01-18T03:31:25.796Z,5.27
2018-01-18T03:33:53.306Z,6.60
2018-01-18T03:36:20.866Z,6.53
2018-01-18T03:38:48.426Z,6.30
2018-01-18T03:41:15.985Z,6.43
2018-01-18T03:43:43.649Z,6.33
2018-01-18T03:46:11.065Z,6.60
2018-01-18T03:48:39.108Z,7.70
2018-01-18T03:51:06.735Z,6.37
2018-01-18T03:53:34.151Z,6.37
2018-01-18T03:56:01.721Z,7.20
2018-01-18T03:58:29.209Z,6.27
2018-01-18T04:00:56.768Z,6.07
2018-01-18T04:03:24.328Z,6.17
2018-01-18T04:05:51.828Z,6.80
2018-01-18T04:08:19.281Z,6.23
2018-01-18T04:10:46.801Z,6.73
2018-01-18T04:13:14.305Z,6.57
2018-01-18T04:15:41.776Z,6.00
2018-01-18T04:18:09.321Z,5.87
2018-01-18T04:20:37.346Z,6.13
2018-01-18T04:23:04.906Z,5.90
2018-01-18T04:25:32.396Z,5.83
2018-01-18T04:27:59.922Z,5.90
2018-01-18T04:30:27.685Z,5.10
2018-01-18T04:32:55.245Z,5.50
2018-01-18T04:35:22.805Z,5.90
2018-01-18T04:37:50.364Z,5.40
2018-01-18T04:40:17.924Z,4.53
2018-01-18T04:42:45.482Z,5.67
2018-01-18T04:45:13.042Z,5.73
2018-01-18T04:47:40.604Z,5.30
2018-01-18T04:50:08.162Z,5.50
2018-01-18T04:52:35.720Z,5.57
2018-01-18T04:55:03.212Z,6.13
2018-01-18T04:57:30.839Z,5.90
2018-01-18T04:59:58.341Z,5.57
2018-01-18T05:02:25.752Z,5.53
2018-01-18T05:04:53.324Z,5.77
2018-01-18T05:07:20.769Z,5.73
2018-01-18T05:09:48.188Z,5.50
2018-01-18T05:12:15.789Z,6.00
2018-01-18T05:14:43.345Z,6.60
2018-01-18T05:17:10.905Z,6.23
2018-01-18T05:19:38.412Z,5.73
2018-01-18T05:22:05.921Z,6.13
2018-01-18T05:24:33.423Z,5.73
2018-01-18T05:27:00.833Z,6.50
2018-01-18T05:29:28.231Z,6.23
2018-01-18T05:31:55.813Z,6.60
2018-01-18T05:34:23.308Z,5.23
2018-01-18T05:36:50.811Z,6.40
2018-01-18T05:39:18.249Z,6.83
2018-01-18T05:41:45.657Z,5.30
2018-01-18T05:44:13.048Z,6.40
2018-01-18T05:46:40.594Z,5.93
2018-01-18T05:49:08.153Z,6.50
2018-01-18T05:51:35.715Z,6.43
2018-01-18T05:54:03.141Z,7.67
2018-01-18T05:56:30.633Z,6.97
2018-01-18T05:58:58.122Z,6.07
2018-01-18T06:01:25.659Z,5.97
2018-01-18T06:03:53.305Z,7.20
2018-01-18T06:06:20.801Z,6.50
2018-01-18T06:08:48.322Z,6.07
2018-01-18T06:11:15.985Z,6.73
2018-01-18T06:13:43.476Z,7.53
2018-01-18T06:16:11.204Z,7.33
2018-01-18T06:18:38.767Z,7.10
2018-01-18T06:21:06.428Z,6.80
2018-01-18T06:23:33.916Z,7.70
2018-01-18T06:26:01.492Z,7.80
2018-01-18T06:28:29.103Z,6.33
2018-01-18T06:30:56.610Z,6.50
2018-01-18T06:33:25.251Z,6.90
2018-01-18T06:35:53.166Z,7.10
2018-01-18T06:38:21.142Z,6.00
2018-01-18T06:40:49.518Z,5.10
2018-01-18T06:43:17.434Z,5.03
2018-01-18T06:45:45.750Z,4.50
2018-01-18T06:48:13.629Z,5.30
2018-01-18T06:50:41.854Z,5.63
2018-01-18T06:53:09.862Z,4.70
2018-01-18T06:55:37.998Z,5.30
2018-01-18T06:58:06.096Z,4.60
2018-01-18T07:00:34.344Z,4.10
2018-01-18T07:03:02.724Z,5.03
2018-01-18T07:05:30.791Z,4.50
2018-01-18T07:07:58.964Z,4.70
2018-01-18T07:10:26.729Z,5.53
2018-01-18T07:12:54.703Z,4.77
2018-01-18T07:15:22.359Z,5.37
2018-01-18T07:17:50.432Z,4.40
2018-01-18T07:20:18.355Z,4.80
2018-01-18T07:22:46.316Z,4.17
2018-01-18T07:25:14.440Z,4.40
2018-01-18T07:27:42.513Z,4.80
2018-01-18T07:30:10.104Z,4.80
2018-01-18T07:32:37.939Z,4.83
2018-01-18T07:35:05.756Z,4.50
2018-01-18T07:37:33.365Z,4.90
2018-01-18T07:40:01.133Z,5.20
2018-01-18T07:42:28.894Z,4.50
2018-01-18T07:44:56.761Z,4.00
2018-01-18T07:47:24.932Z,3.67
2018-01-18T07:49:52.540Z,4.13
2018-01-18T07:52:20.257Z,3.67
2018-01-18T07:54:47.818Z,4.30
2018-01-18T07:57:21.418Z,5.10
2018-01-18T07:59:49.430Z,5.20
2018-01-18T08:02:17.253Z,4.30
2018-01-18T08:04:44.973Z,4.43
2018-01-18T08:07:12.666Z,4.27
2018-01-18T08:09:40.710Z,4.50
2018-01-18T08:12:08.454Z,4.07
2018-01-18T08:14:36.382Z,4.00
2018-01-18T08:17:04.108Z,3.63
2018-01-18T08:19:31.991Z,3.97
2018-01-18T08:21:59.470Z,4.30
2018-01-18T08:24:27.203Z,3.80
2018-01-18T08:26:55.920Z,3.40
2018-01-18T08:29:23.786Z,4.17
2018-01-18T08:31:51.656Z,4.10
2018-01-18T08:34:19.417Z,3.57
2018-01-18T08:36:47.219Z,4.40
2018-01-18T08:39:14.637Z,3.23
2018-01-18T08:41:42.200Z,3.07
2018-01-18T08:44:09.758Z,3.47
2018-01-18T08:46:37.318Z,3.47
2018-01-18T08:49:04.923Z,4.50
2018-01-18T08:51:32.436Z,3.60
2018-01-18T08:54:00.000Z,3.57
2018-01-18T08:56:27.856Z,5.00
2018-01-18T08:58:55.260Z,3.20
2018-01-18T09:01:22.720Z,3.50
2018-01-18T09:03:50.171Z,3.60
2018-01-18T09:06:17.689Z,4.03
2018-01-18T09:08:46.139Z,3.43
2018-01-18T09:11:13.684Z,2.87
2018-01-18T09:13:41.186Z,3.47
2018-01-18T09:16:08.745Z,3.27
2018-01-18T09:18:36.305Z,3.43
2018-01-18T09:21:03.866Z,3.13
2018-01-18T09:23:31.265Z,3.17
2018-01-18T09:25:58.779Z,3.77
2018-01-18T09:28:26.217Z,3.30
2018-01-18T09:30:53.728Z,4.50
2018-01-18T09:33:21.184Z,2.90
2018-01-18T09:35:48.640Z,3.13
2018-01-18T09:38:16.199Z,2.97
2018-01-18T09:40:43.828Z,3.30
2018-01-18T09:43:11.797Z,3.10
2018-01-18T09:45:39.229Z,3.07
2018-01-18T09:48:06.819Z,3.20
2018-01-18T09:50:34.578Z,3.03
2018-01-18T09:53:02.072Z,3.37
2018-01-18T09:55:29.594Z,3.30
2018-01-18T09:57:57.153Z,2.97
2018-01-18T10:00:24.562Z,3.60
2018-01-18T10:02:52.067Z,3.40
2018-01-18T10:05:19.562Z,3.60
2018-01-18T10:07:47.084Z,3.40
2018-01-18T10:10:14.540Z,4.40
2018-01-18T10:12:42.052Z,3.43
2018-01-18T10:15:09.663Z,3.30
2018-01-18T10:17:37.097Z,3.50
2018-01-18T10:20:04.512Z,3.20
2018-01-18T10:22:32.032Z,4.30
2018-01-18T10:24:59.616Z,3.70
2018-01-18T10:27:27.049Z,3.93
2018-01-18T10:29:54.607Z,4.47
2018-01-18T10:32:22.170Z,3.77
2018-01-18T10:34:49.662Z,4.70
2018-01-18T10:37:17.284Z,4.10
2018-01-18T10:39:44.787Z,4.67
2018-01-18T10:42:12.198Z,3.10
2018-01-18T10:44:39.693Z,3.73
2018-01-18T10:47:07.214Z,3.00
2018-01-18T10:49:34.774Z,3.87
2018-01-18T10:52:02.334Z,4.10
2018-01-18T10:54:29.728Z,4.20
2018-01-18T10:56:57.248Z,3.70
2018-01-18T10:59:24.736Z,3.80
2018-01-18T11:01:52.367Z,4.27
2018-01-18T11:04:19.926Z,3.70
2018-01-18T11:06:47.383Z,3.50
2018-01-18T11:09:14.812Z,3.80
2018-01-18T11:11:42.347Z,3.20
2018-01-18T11:14:09.856Z,3.30
2018-01-18T11:16:37.347Z,3.30
2018-01-18T11:19:04.873Z,3.33
2018-01-18T11:21:32.364Z,2.80
2018-01-18T11:23:59.832Z,2.93
2018-01-18T11:26:27.333Z,6.17
2018-01-18T11:28:54.906Z,5.53
2018-01-18T11:31:22.373Z,5.17
2018-01-18T11:33:49.926Z,4.70
2018-01-18T11:36:17.416Z,4.90
2018-01-18T11:38:44.939Z,4.00
2018-01-18T11:41:12.433Z,3.20
2018-01-18T11:43:39.955Z,4.87
2018-01-18T11:46:07.515Z,4.23
2018-01-18T11:48:34.916Z,2.90
2018-01-18T11:51:02.580Z,2.90
2018-01-18T11:53:30.094Z,2.50
2018-01-18T11:55:57.690Z,2.90
2018-01-18T11:58:25.175Z,3.00
2018-01-18T12:00:52.667Z,3.10
2018-01-18T12:03:20.227Z,2.70
2018-01-18T12:05:47.683Z,2.70
2018-01-18T12:08:15.242Z,3.00
2018-01-18T12:10:42.803Z,2.60
2018-01-18T12:13:10.362Z,2.77
2018-01-18T12:15:37.921Z,3.10
2018-01-18T12:18:05.480Z,2.90
2018-01-18T12:20:32.989Z,2.70
2018-01-18T12:23:00.432Z,3.50
2018-01-18T12:25:28.158Z,3.00
2018-01-18T12:27:55.719Z,3.20
2018-01-18T12:30:23.278Z,3.10
2018-01-18T12:32:51.042Z,3.13
2018-01-18T12:35:18.601Z,2.80
2018-01-18T12:37:46.059Z,3.00
2018-01-18T12:40:13.617Z,2.23
2018-01-18T12:42:41.111Z,2.90
2018-01-18T12:45:08.575Z,3.40
2018-01-18T12:47:36.093Z,2.83
2018-01-18T12:50:03.650Z,2.73
2018-01-18T12:52:31.209Z,2.90
2018-01-18T12:54:58.700Z,2.77
2018-01-18T12:57:26.226Z,2.63
2018-01-18T12:59:53.785Z,2.77
2018-01-18T13:02:21.346Z,3.30
2018-01-18T13:04:48.836Z,3.07
2018-01-18T13:07:16.567Z,2.97
2018-01-18T13:09:44.024Z,2.60
2018-01-18T13:12:11.720Z,2.57
2018-01-18T13:14:39.244Z,3.00
2018-01-18T13:17:06.804Z,2.60
2018-01-18T13:19:34.364Z,2.20
2018-01-18T13:22:01.833Z,2.30
2018-01-18T13:24:29.380Z,2.30
2018-01-18T13:26:57.041Z,2.00
2018-01-18T13:29:24.601Z,2.17
2018-01-18T13:31:52.161Z,1.63
2018-01-18T13:34:19.721Z,1.70
2018-01-18T13:36:47.280Z,1.60
2018-01-18T13:39:14.839Z,2.63
2018-01-18T13:41:42.398Z,1.80
2018-01-18T13:44:09.892Z,1.30
2018-01-18T13:46:37.415Z,1.50
2018-01-18T13:49:05.486Z,1.73
2018-01-18T13:51:32.945Z,2.17
2018-01-18T13:54:00.503Z,2.00
2018-01-18T13:56:28.063Z,1.90
2018-01-18T13:58:55.552Z,2.13
2018-01-18T14:01:23.014Z,2.00
2018-01-18T14:03:50.739Z,1.80
2018-01-18T14:06:18.252Z,2.00
2018-01-18T14:08:45.757Z,1.77
2018-01-18T14:11:13.316Z,1.53
2018-01-18T14:13:40.809Z,1.70
2018-01-18T14:16:08.333Z,1.83
2018-01-18T14:18:35.826Z,1.90
2018-01-18T14:21:03.212Z,2.00
2018-01-18T14:23:30.806Z,2.23
2018-01-18T14:25:58.365Z,1.80
2018-01-18T14:28:25.925Z,1.97
2018-01-18T14:30:53.484Z,2.47
2018-01-18T14:33:21.044Z,2.40
2018-01-18T14:35:48.536Z,2.00
2018-01-18T14:38:16.060Z,2.43
2018-01-18T14:40:43.552Z,2.13
2018-01-18T14:43:14.388Z,1.93
2018-01-18T14:45:41.914Z,2.40
2018-01-18T14:48:09.608Z,2.50
2018-01-18T14:50:37.134Z,2.03
2018-01-18T14:53:04.694Z,2.50
2018-01-18T14:55:32.254Z,2.10
2018-01-18T14:57:59.812Z,2.30
2018-01-18T15:00:27.371Z,2.00
2018-01-18T15:02:54.865Z,2.60
2018-01-18T15:05:22.322Z,2.80
2018-01-18T15:07:49.844Z,2.60
2018-01-18T15:10:17.406Z,2.10
2018-01-18T15:12:44.847Z,2.93
2018-01-18T15:15:12.421Z,2.80
2018-01-18T15:17:39.981Z,2.47
2018-01-18T15:20:07.548Z,1.87
2018-01-18T15:22:35.099Z,1.80
2018-01-18T15:25:02.658Z,1.90
2018-01-18T15:27:30.148Z,1.70
2018-01-18T15:29:57.608Z,2.00
2018-01-18T15:32:25.134Z,1.17
2018-01-18T15:34:52.624Z,1.73
2018-01-18T15:37:20.149Z,1.87
2018-01-18T15:39:47.644Z,2.00
2018-01-18T15:42:15.164Z,1.67
2018-01-18T15:44:42.724Z,1.93
2018-01-18T15:47:10.264Z,2.07
2018-01-18T15:49:37.741Z,2.53
2018-01-18T15:52:05.324Z,2.43
2018-01-18T15:54:32.863Z,1.90
2018-01-18T15:57:00.352Z,2.30
2018-01-18T15:59:27.979Z,1.57
2018-01-18T16:01:55.435Z,2.00
2018-01-18T16:04:23.096Z,2.17
2018-01-18T16:06:50.660Z,2.10
2018-01-18T16:09:18.160Z,2.37
2018-01-18T16:11:45.672Z,1.70
2018-01-18T16:14:13.232Z,2.50
2018-01-18T16:16:40.791Z,2.30
2018-01-18T16:19:08.283Z,2.70
2018-01-18T16:21:35.809Z,2.73
2018-01-18T16:24:03.300Z,3.10
2018-01-18T16:26:30.831Z,2.63
2018-01-18T16:28:58.386Z,3.00
2018-01-18T16:31:25.876Z,2.77
2018-01-18T16:33:53.401Z,3.00
2018-01-18T16:36:20.963Z,2.70
2018-01-18T16:38:48.520Z,2.00
2018-01-18T16:41:16.012Z,2.80
2018-01-18T16:43:43.557Z,2.93
2018-01-18T16:46:11.096Z,2.70
2018-01-18T16:48:38.655Z,2.87
2018-01-18T16:51:06.150Z,2.50
2018-01-18T16:53:33.619Z,2.17
2018-01-18T16:56:01.129Z,2.93
2018-01-18T16:58:28.689Z,2.43
2018-01-18T17:00:56.182Z,2.30
2018-01-18T17:03:23.706Z,2.57
2018-01-18T17:05:51.212Z,2.03
2018-01-18T17:08:18.629Z,2.30
2018-01-18T17:10:46.178Z,1.93
2018-01-18T17:13:13.673Z,2.20
2018-01-18T17:15:41.128Z,2.00
2018-01-18T17:18:08.651Z,1.77
2018-01-18T17:20:36.144Z,1.63
2018-01-18T17:23:03.872Z,1.30
2018-01-18T17:25:31.364Z,1.30
2018-01-18T17:27:58.890Z,1.60
2018-01-18T17:30:26.453Z,1.30
2018-01-18T17:32:53.941Z,1.10
2018-01-18T17:35:21.464Z,1.20
2018-01-18T17:37:48.964Z,1.30
2018-01-18T17:40:16.412Z,1.00
2018-01-18T17:42:43.938Z,1.50
2018-01-18T17:45:11.498Z,1.60
2018-01-18T17:47:38.956Z,1.50
2018-01-18T17:50:06.617Z,1.80
2018-01-18T17:52:34.176Z,1.93
2018-01-18T17:55:01.680Z,1.83
2018-01-18T17:57:29.193Z,2.23
2018-01-18T17:59:56.855Z,2.40
2018-01-18T18:02:24.414Z,1.87
2018-01-18T18:04:51.871Z,2.03
2018-01-18T18:07:19.433Z,2.57
2018-01-18T18:09:46.869Z,2.40
2018-01-18T18:12:14.382Z,2.40
2018-01-18T18:14:41.836Z,3.50
2018-01-18T18:17:09.476Z,2.40
2018-01-18T18:19:37.023Z,2.63
2018-01-18T18:22:04.582Z,2.30
2018-01-18T18:24:32.040Z,3.03
2018-01-18T18:26:59.601Z,3.90
2018-01-18T18:29:27.158Z,2.47
2018-01-18T18:31:54.718Z,4.63
2018-01-18T18:34:22.281Z,3.13
2018-01-18T18:36:49.843Z,4.00
2018-01-18T18:39:17.397Z,3.53
2018-01-18T18:41:44.889Z,3.30
2018-01-18T18:44:12.414Z,3.47
2018-01-18T18:46:39.978Z,4.30
2018-01-18T18:49:07.532Z,4.30
2018-01-18T18:51:35.024Z,3.63
2018-01-18T18:54:02.420Z,4.03
2018-01-18T18:56:30.006Z,4.27
2018-01-18T18:58:57.565Z,4.60
2018-01-18T19:01:25.068Z,4.73
2018-01-18T19:03:52.789Z,5.23
2018-01-18T19:06:20.243Z,6.87
2018-01-18T19:08:47.700Z,5.20
2018-01-18T19:11:15.191Z,4.67
2018-01-18T19:13:42.715Z,4.43
2018-01-18T19:16:10.275Z,4.80
2018-01-18T19:18:37.769Z,5.90
2018-01-18T19:21:05.292Z,4.90
2018-01-18T19:23:32.852Z,4.30
2018-01-18T19:26:00.410Z,5.00
2018-01-18T19:28:27.971Z,5.27
2018-01-18T19:30:55.531Z,4.03
2018-01-18T19:33:22.987Z,5.40
2018-01-18T19:35:50.546Z,4.40
2018-01-18T19:38:18.036Z,4.20
2018-01-18T19:40:45.460Z,4.50
2018-01-18T19:43:13.020Z,3.10
2018-01-18T19:45:40.579Z,3.50
2018-01-18T19:48:08.139Z,4.53
2018-01-18T19:50:35.701Z,4.43
2018-01-18T19:53:03.258Z,2.90
2018-01-18T19:55:30.817Z,3.93
2018-01-18T19:57:58.309Z,3.23
2018-01-18T20:00:25.833Z,3.30
2018-01-18T20:02:53.330Z,3.50
2018-01-18T20:05:21.179Z,3.00
2018-01-18T20:07:48.716Z,3.13
2018-01-18T20:10:16.378Z,3.10
2018-01-18T20:12:43.985Z,3.30
2018-01-18T20:15:11.430Z,3.33
2018-01-18T20:17:38.928Z,2.63
2018-01-18T20:20:06.541Z,3.17
2018-01-18T20:22:34.072Z,2.93
2018-01-18T20:25:01.581Z,2.57
2018-01-18T20:27:29.141Z,3.00
2018-01-18T20:29:56.587Z,3.07
2018-01-18T20:32:24.105Z,2.97
2018-01-18T20:34:51.673Z,2.37
2018-01-18T20:37:19.328Z,2.43
2018-01-18T20:39:46.835Z,3.10
2018-01-18T20:42:14.281Z,2.47
2018-01-18T20:44:41.839Z,2.90
2018-01-18T20:47:09.589Z,2.50
2018-01-18T20:49:37.136Z,2.57
2018-01-18T20:52:04.617Z,2.53
2018-01-18T20:54:32.056Z,3.17
2018-01-18T20:56:59.801Z,3.50
2018-01-18T20:59:27.386Z,3.10
2018-01-18T21:01:55.022Z,2.93
2018-01-18T21:04:22.582Z,3.23
2018-01-18T21:06:50.049Z,2.83
2018-01-18T21:09:17.601Z,2.47
2018-01-18T21:11:45.002Z,3.27
2018-01-18T21:14:12.470Z,3.53
2018-01-18T21:16:39.970Z,3.67
2018-01-18T21:19:07.472Z,3.70
2018-01-18T21:21:34.920Z,3.50
2018-01-18T21:24:02.875Z,3.40
2018-01-18T21:26:30.415Z,3.80
2018-01-18T21:28:57.971Z,3.57
2018-01-18T21:31:25.534Z,3.07
2018-01-18T21:33:53.192Z,3.70
2018-01-18T21:36:20.752Z,3.47
2018-01-18T21:38:48.313Z,3.67
2018-01-18T21:41:15.875Z,3.67
2018-01-18T21:43:43.276Z,3.20
2018-01-18T21:46:10.707Z,3.90
2018-01-18T21:48:38.173Z,3.37
2018-01-18T21:51:05.699Z,3.10
2018-01-18T21:53:33.110Z,2.40
2018-01-18T21:56:00.663Z,3.10
2018-01-18T21:58:28.172Z,2.90
2018-01-18T22:00:55.733Z,2.90
2018-01-18T22:03:23.292Z,3.57
2018-01-18T22:05:50.849Z,3.20
2018-01-18T22:08:18.410Z,3.27
2018-01-18T22:10:45.902Z,2.90
2018-01-18T22:13:13.425Z,2.50
2018-01-18T22:15:40.933Z,3.20
2018-01-18T22:18:08.442Z,2.97
2018-01-18T22:20:36.003Z,3.70
2018-01-18T22:23:03.492Z,3.50
2018-01-18T22:25:31.018Z,3.80
2018-01-18T22:27:58.580Z,4.00
2018-01-18T22:30:26.137Z,3.20
2018-01-18T22:32:53.696Z,4.43
2018-01-18T22:35:21.256Z,4.50
2018-01-18T22:37:48.815Z,4.07
2018-01-18T22:40:16.375Z,4.60
2018-01-18T22:42:43.934Z,5.33
2018-01-18T22:45:11.495Z,4.53
2018-01-18T22:47:38.987Z,5.00
2018-01-18T22:50:06.510Z,4.63
2018-01-18T22:52:34.070Z,4.97
2018-01-18T22:55:01.629Z,5.00
2018-01-18T22:57:29.189Z,4.97
2018-01-18T22:59:56.851Z,4.80
2018-01-18T23:02:24.414Z,5.70
2018-01-18T23:04:51.969Z,5.20
2018-01-18T23:07:19.439Z,4.53
2018-01-18T23:09:46.883Z,5.17
2018-01-18T23:12:14.393Z,5.40
2018-01-18T23:14:41.902Z,5.37
2018-01-18T23:17:09.403Z,6.07
2018-01-18T23:19:36.919Z,5.20
2018-01-18T23:22:04.412Z,6.17
2018-01-18T23:24:31.932Z,5.90
2018-01-18T23:26:59.528Z,5.80
2018-01-18T23:29:27.051Z,5.63
2018-01-18T23:31:54.552Z,6.13
2018-01-18T23:34:22.069Z,6.00
2018-01-18T23:36:49.627Z,6.10
2018-01-18T23:39:17.085Z,6.23
2018-01-18T23:41:44.476Z,6.20
2018-01-18T23:44:12.002Z,6.00
2018-01-18T23:46:39.558Z,5.70
2018-01-18T23:49:07.053Z,6.30
2018-01-18T23:51:34.678Z,5.90
2018-01-18T23:54:02.105Z,5.47
2018-01-18T23:56:29.693Z,5.80
2018-01-18T23:58:58.072Z,5.73
